Time;durP1;ratioP1;P1;durP2;ratioP2;P2;SDS_P1;SDS_P2;PMS_P1;PMS_P2;Temp;Humidity;BMP_temperature;BMP_pressure;BME280_temperature;BME280_humidity;BME280_pressure;Samples;Min_cycle;Max_cycle;Signal;HPM_P1;HPM_P2
2021/07/12 00:02:26;;;;;;;70.95;35.63;;;;;;;26.69;37.61;99530.47;1728697;81;21126;-50
2021/07/12 00:04:52;;;;;;;73.85;36.83;;;;;;;26.49;37.26;99528.92;1727386;80;21459;-54
2021/07/12 00:07:20;;;;;;;77.35;40.60;;;;;;;26.33;36.95;99518.34;1730333;80;21037;-52
2021/07/12 00:09:48;;;;;;;76.40;39.00;;;;;;;26.21;36.46;99524.98;1734218;79;21469;-54
2021/07/12 00:12:15;;;;;;;69.87;36.65;;;;;;;26.08;38.55;99521.81;1736191;81;21555;-53
2021/07/12 00:14:44;;;;;;;73.35;36.90;;;;;;;25.97;41.62;99524.72;1734548;81;21064;-54
2021/07/12 00:17:12;;;;;;;70.55;36.48;;;;;;;25.88;43.40;99523.24;1737452;81;21021;-55
2021/07/12 00:19:40;;;;;;;72.05;36.83;;;;;;;25.86;43.96;99523.90;1748706;80;20984;-57
2021/07/12 00:22:09;;;;;;;69.03;35.73;;;;;;;25.88;44.18;99521.89;1732164;81;21043;-58
2021/07/12 00:24:38;;;;;;;79.03;36.88;;;;;;;25.93;44.22;99514.20;1737369;81;22099;-55
2021/07/12 00:27:05;;;;;;;65.75;35.17;;;;;;;25.99;44.24;99511.92;1729330;80;22164;-54
2021/07/12 00:29:31;;;;;;;73.92;36.38;;;;;;;26.07;44.19;99516.89;1729424;80;20993;-53
2021/07/12 00:31:57;;;;;;;62.50;33.98;;;;;;;26.12;44.17;99512.40;1707100;81;21046;-54
2021/07/12 00:34:24;;;;;;;70.85;35.10;;;;;;;26.17;44.16;99510.09;1730567;81;22397;-53
2021/07/12 00:36:50;;;;;;;66.10;34.70;;;;;;;26.20;44.17;99505.73;1760629;79;21470;-52
2021/07/12 00:39:19;;;;;;;61.88;32.53;;;;;;;26.24;44.19;99503.09;1734450;80;21030;-52
2021/07/12 00:41:47;;;;;;;63.65;32.55;;;;;;;26.26;44.15;99502.44;1760974;80;21906;-52
2021/07/12 00:44:14;;;;;;;68.33;34.63;;;;;;;26.31;44.13;99502.82;1761552;80;21038;-58
2021/07/12 00:46:41;;;;;;;67.75;33.60;;;;;;;26.33;44.10;99498.63;1760527;79;22323;-53
2021/07/12 00:49:07;;;;;;;61.88;32.98;;;;;;;26.38;44.11;99504.87;1760221;79;21125;-53
2021/07/12 00:51:34;;;;;;;60.98;33.28;;;;;;;26.41;44.11;99505.92;1763926;79;21086;-53
2021/07/12 00:54:04;;;;;;;67.87;32.50;;;;;;;26.44;44.16;99500.22;1714055;80;21121;-52
2021/07/12 00:56:32;;;;;;;63.95;33.02;;;;;;;26.46;44.20;99507.16;1760898;80;21490;-55
2021/07/12 00:59:01;;;;;;;66.60;32.48;;;;;;;26.49;44.20;99503.29;1731175;80;21106;-53
2021/07/12 01:01:29;;;;;;;61.92;30.77;;;;;;;26.51;44.25;99500.80;1762263;80;20956;-55
2021/07/12 01:03:57;;;;;;;60.38;31.68;;;;;;;26.53;44.27;99493.91;1761703;79;21223;-60
2021/07/12 01:06:25;;;;;;;60.65;31.45;;;;;;;26.56;44.31;99494.07;1761397;79;21078;-61
2021/07/12 01:08:51;;;;;;;60.90;31.55;;;;;;;26.57;44.36;99493.08;1731174;80;21044;-52
2021/07/12 01:11:46;;;;;;;56.68;31.05;;;;;;;26.60;44.42;99489.56;1760909;80;21015;-51
2021/07/12 01:14:36;;;;;;;56.60;30.15;;;;;;;26.61;44.45;99490.40;1763526;79;21055;-61
2021/07/12 01:17:28;;;;;;;53.38;29.42;;;;;;;26.62;44.51;99486.70;1756640;80;21235;-53
2021/07/12 01:20:09;;;;;;;56.40;29.20;;;;;;;26.64;44.63;99491.47;1737961;80;21071;-57
2021/07/12 01:23:14;;;;;;;56.37;30.02;;;;;;;26.66;44.74;99496.20;1747105;80;21038;-52
2021/07/12 01:26:19;;;;;;;58.02;28.83;;;;;;;26.68;44.86;99493.70;1761302;80;22041;-54
2021/07/12 01:29:17;;;;;;;56.98;28.90;;;;;;;26.71;44.87;99490.34;1733211;80;21637;-55
2021/07/12 01:32:27;;;;;;;52.15;27.45;;;;;;;26.74;45.04;99492.73;1759518;80;22382;-58
2021/07/12 01:35:08;;;;;;;52.05;27.93;;;;;;;26.75;45.12;99497.10;1728437;80;20992;-57
2021/07/12 01:37:57;;;;;;;48.78;27.55;;;;;;;26.75;45.24;99497.10;1754716;80;21079;-54
2021/07/12 01:41:21;;;;;;;50.92;27.07;;;;;;;26.77;45.31;99495.95;1732611;81;20997;-53
2021/07/12 01:43:58;;;;;;;49.73;27.35;;;;;;;26.78;45.33;99498.14;1753529;80;21617;-57
2021/07/12 01:46:36;;;;;;;56.58;27.05;;;;;;;26.80;45.33;99504.25;1752746;80;21094;-55
2021/07/12 01:49:14;;;;;;;48.78;26.87;;;;;;;26.81;45.33;99509.98;1702230;82;21108;-59
2021/07/12 01:52:23;;;;;;;47.93;26.17;;;;;;;26.81;45.34;99500.02;1723583;82;21103;-60
2021/07/12 01:55:22;;;;;;;50.92;25.02;;;;;;;26.83;45.38;99507.96;1728318;80;21943;-54
2021/07/12 01:58:00;;;;;;;47.38;26.60;;;;;;;26.84;45.32;99503.75;1753313;80;21130;-59
2021/07/12 02:00:27;;;;;;;48.00;24.92;;;;;;;26.86;45.35;99509.00;1749093;80;22220;-53
2021/07/12 02:02:56;;;;;;;49.25;26.30;;;;;;;26.87;45.37;99508.00;1751780;80;21039;-55
2021/07/12 02:05:27;;;;;;;48.05;26.52;;;;;;;26.87;45.42;99512.89;1748549;80;21062;-52
2021/07/12 02:07:55;;;;;;;44.63;25.85;;;;;;;26.88;45.43;99502.45;1723376;82;21064;-52
2021/07/12 02:10:27;;;;;;;45.30;24.40;;;;;;;26.89;45.42;99507.34;1715782;81;22222;-53
2021/07/12 02:12:58;;;;;;;42.90;23.75;;;;;;;26.92;45.40;99508.89;1717435;82;21768;-55
2021/07/12 02:15:26;;;;;;;43.58;24.72;;;;;;;26.93;45.40;99509.22;1724868;80;21071;-54
2021/07/12 02:17:55;;;;;;;42.27;24.00;;;;;;;26.94;45.50;99510.41;1722638;82;21068;-52
2021/07/12 02:20:25;;;;;;;43.02;23.47;;;;;;;26.94;45.59;99502.31;1720887;81;21091;-54
2021/07/12 02:22:52;;;;;;;45.88;23.35;;;;;;;26.97;45.61;99504.70;1754318;80;21083;-54
2021/07/12 02:25:21;;;;;;;42.03;23.25;;;;;;;26.98;45.62;99501.00;1752775;80;21155;-55
2021/07/12 02:27:48;;;;;;;40.30;22.95;;;;;;;27.01;45.68;99497.95;1725447;80;21034;-52
2021/07/12 02:30:16;;;;;;;38.05;22.42;;;;;;;27.04;45.66;99506.25;1726410;81;21090;-60
2021/07/12 02:32:44;;;;;;;40.15;21.68;;;;;;;27.04;45.71;99497.64;1723927;80;21094;-53
2021/07/12 02:35:12;;;;;;;41.13;23.02;;;;;;;27.08;45.72;99497.33;1713193;82;21024;-53
2021/07/12 02:37:43;;;;;;;40.05;21.65;;;;;;;27.12;45.75;99493.28;1697897;82;21760;-55
2021/07/12 02:40:15;;;;;;;41.92;22.67;;;;;;;27.16;45.80;99494.67;1711096;82;21107;-52
2021/07/12 02:42:46;;;;;;;43.02;22.02;;;;;;;27.20;45.88;99491.98;1712194;82;20973;-52
2021/07/12 02:45:18;;;;;;;40.88;21.90;;;;;;;27.25;45.91;99491.86;1706822;82;21072;-53
2021/07/12 02:47:46;;;;;;;40.10;21.90;;;;;;;27.29;45.91;99491.06;1699919;82;21082;-53
2021/07/12 02:50:15;;;;;;;38.05;20.88;;;;;;;27.34;45.95;99487.88;1716844;81;21040;-60
2021/07/12 02:52:59;;;;;;;35.08;20.40;;;;;;;27.38;45.88;99490.07;1705684;81;22097;-54
2021/07/12 02:55:27;;;;;;;;;;;;;;;27.42;45.82;99484.70;1658282;83;21012;-54
2021/07/12 02:57:54;;;;;;;39.18;20.08;;;;;;;27.48;45.78;99481.01;1689180;82;20162;-54
2021/07/12 03:00:23;;;;;;;39.48;20.20;;;;;;;27.53;45.78;99482.20;1729493;81;21183;-54
2021/07/12 03:02:50;;;;;;;40.58;20.52;;;;;;;27.58;45.75;99473.61;1741502;81;21082;-52
2021/07/12 03:05:17;;;;;;;36.73;20.05;;;;;;;27.58;43.99;99476.31;1712717;81;21193;-53
2021/07/12 03:08:10;;;;;;;36.77;19.75;;;;;;;27.54;43.77;99471.74;1735667;80;21083;-60
2021/07/12 03:10:53;;;;;;;32.70;19.55;;;;;;;27.52;43.78;99472.42;1732572;80;21076;-51
2021/07/12 03:13:31;;;;;;;30.12;19.12;;;;;;;27.54;43.71;99473.09;1732485;80;21032;-55
2021/07/12 03:15:58;;;;;;;32.13;17.55;;;;;;;27.58;43.71;99474.96;1716778;80;21733;-60
2021/07/12 03:18:31;;;;;;;31.57;18.23;;;;;;;27.61;43.73;99478.69;1747647;81;21048;-59
2021/07/12 03:20:59;;;;;;;31.87;17.90;;;;;;;27.66;43.78;99479.56;1731102;81;20984;-56
2021/07/12 03:23:27;;;;;;;30.10;16.77;;;;;;;27.72;43.78;99483.80;1691454;81;21637;-54
2021/07/12 03:26:00;;;;;;;28.70;16.17;;;;;;;27.79;43.71;99488.88;1732818;81;20965;-53
2021/07/12 03:28:26;;;;;;;30.77;17.00;;;;;;;27.88;43.64;99486.20;1731374;81;21091;-52
2021/07/12 03:30:53;;;;;;;26.62;16.80;;;;;;;27.98;43.53;99477.46;1717509;82;21546;-51
2021/07/12 03:33:23;;;;;;;27.55;16.62;;;;;;;28.07;43.43;99472.91;1740590;81;21060;-52
2021/07/12 03:35:52;;;;;;;28.27;17.15;;;;;;;28.14;43.33;99473.44;1713955;82;21010;-55
2021/07/12 03:38:21;;;;;;;32.40;17.65;;;;;;;28.26;43.17;99475.78;1740290;81;22169;-53
2021/07/12 03:40:48;;;;;;;28.75;16.52;;;;;;;28.35;43.02;99472.92;1750457;79;21129;-52
2021/07/12 03:43:16;;;;;;;27.55;15.70;;;;;;;28.42;43.00;99475.80;1756615;81;21030;-53
2021/07/12 03:45:52;;;;;;;25.45;16.27;;;;;;;28.49;42.91;99484.08;1760739;79;21074;-59
2021/07/12 03:48:18;;;;;;;25.97;16.23;;;;;;;28.52;42.90;99494.05;1754933;79;20969;-55
2021/07/12 03:50:45;;;;;;;27.15;16.87;;;;;;;28.57;42.91;99491.39;1746628;81;21035;-56
2021/07/12 03:53:13;;;;;;;26.50;16.35;;;;;;;28.60;43.12;99491.06;1726696;80;21246;-54
2021/07/12 03:55:39;;;;;;;25.72;15.90;;;;;;;28.59;43.28;99490.71;1765647;79;20976;-54
2021/07/12 03:58:06;;;;;;;25.48;15.43;;;;;;;28.49;41.38;99487.62;1754044;81;21075;-53
2021/07/12 04:00:33;;;;;;;26.00;15.60;;;;;;;28.39;39.30;99482.89;1717770;79;22312;-58
2021/07/12 04:03:00;;;;;;;23.55;14.55;;;;;;;28.31;38.98;99490.52;1752058;79;21233;-53
2021/07/12 04:05:28;;;;;;;26.00;14.20;;;;;;;28.32;38.98;99487.30;1748576;79;21140;-53
2021/07/12 04:07:55;;;;;;;23.87;15.03;;;;;;;28.41;39.03;99489.49;1748331;79;21594;-57
2021/07/12 04:10:22;;;;;;;25.75;14.35;;;;;;;28.52;39.04;99477.81;1751149;81;21004;-52
2021/07/12 04:12:49;;;;;;;20.60;13.05;;;;;;;28.63;39.15;99479.86;1749695;81;20972;-54
2021/07/12 04:15:16;;;;;;;20.27;12.60;;;;;;;28.67;39.99;99466.34;1749225;81;21450;-57
2021/07/12 04:17:44;;;;;;;19.80;12.07;;;;;;;28.60;38.85;99470.77;1756414;81;23259;-59
2021/07/12 04:20:13;;;;;;;18.32;11.97;;;;;;;28.44;37.13;99471.56;1752165;81;21054;-59
2021/07/12 04:22:40;;;;;;;18.45;12.35;;;;;;;28.19;35.94;99470.20;1735582;81;21149;-56
2021/07/12 04:25:09;;;;;;;15.18;11.35;;;;;;;27.94;35.17;99482.84;1752632;79;20993;-50
2021/07/12 04:27:37;;;;;;;18.62;11.70;;;;;;;27.72;37.80;99486.50;1749674;79;21019;-50
2021/07/12 04:30:05;;;;;;;17.62;11.83;;;;;;;27.58;40.66;99483.91;1749169;81;21836;-54
2021/07/12 04:32:32;;;;;;;19.12;11.55;;;;;;;27.52;42.57;99479.17;1750273;80;21475;-50
2021/07/12 04:34:59;;;;;;;19.98;11.18;;;;;;;27.47;43.55;99480.66;1747497;80;21052;-51
2021/07/12 04:37:26;;;;;;;17.30;11.38;;;;;;;27.39;42.52;99480.97;1724920;81;21802;-53
2021/07/12 04:39:53;;;;;;;15.53;10.68;;;;;;;27.23;41.08;99480.38;1733008;81;21590;-53
2021/07/12 04:42:19;;;;;;;16.82;10.78;;;;;;;27.15;40.96;99474.06;1733220;81;22428;-51
2021/07/12 04:44:46;;;;;;;15.63;9.75;;;;;;;27.14;41.08;99472.39;1740237;81;22098;-52
2021/07/12 04:47:12;;;;;;;18.85;10.75;;;;;;;27.15;41.28;99476.77;1719176;81;21883;-54
2021/07/12 04:49:39;;;;;;;16.65;10.30;;;;;;;27.20;41.58;99477.13;1729695;81;22021;-53
2021/07/12 04:52:06;;;;;;;15.90;10.68;;;;;;;27.25;41.78;99482.89;1729426;81;21194;-53
2021/07/12 04:54:33;;;;;;;12.28;6.47;;;;;;;27.30;41.98;99480.58;1731494;81;22187;-53
2021/07/12 04:57:00;;;;;;;13.25;6.12;;;;;;;27.36;42.98;99478.59;1724003;81;21044;-52
2021/07/12 04:59:28;;;;;;;9.53;6.90;;;;;;;27.41;43.39;99483.00;1732129;80;20998;-53
2021/07/12 05:05:23;;;;;;;11.28;6.53;;;;;;;27.53;43.96;99497.06;1691509;79;21031;-54
2021/07/12 05:07:50;;;;;;;17.52;6.55;;;;;;;27.61;43.98;99493.55;1679309;82;21055;-53
2021/07/12 05:10:17;;;;;;;14.83;7.30;;;;;;;27.69;44.03;99479.20;1678806;82;21012;-53
2021/07/12 05:12:43;;;;;;;10.70;6.80;;;;;;;27.78;43.91;99484.47;1678138;82;21057;-55
2021/07/12 05:15:11;;;;;;;9.40;5.30;;;;;;;27.89;43.61;99482.47;1680313;82;21044;-52
2021/07/12 05:17:38;;;;;;;14.35;5.53;;;;;;;28.00;43.70;99486.25;1607739;83;21066;-51
2021/07/12 05:20:06;;;;;;;10.82;5.97;;;;;;;28.11;43.58;99485.94;1649444;84;21067;-52
2021/07/12 05:22:34;;;;;;;11.22;5.50;;;;;;;28.23;43.50;99486.97;1678308;82;21071;-52
2021/07/12 05:25:02;;;;;;;14.47;5.20;;;;;;;28.33;43.07;99483.59;1677750;83;21075;-53
2021/07/12 05:27:30;;;;;;;14.20;4.70;;;;;;;28.44;42.73;99489.16;1646416;82;21022;-56
2021/07/12 05:29:57;;;;;;;5.42;4.70;;;;;;;28.52;42.58;99488.64;1677934;83;21040;-54
2021/07/12 05:32:24;;;;;;;15.68;5.12;;;;;;;28.61;42.74;99484.61;1677555;82;21111;-54
2021/07/12 05:34:51;;;;;;;18.30;4.72;;;;;;;28.68;42.79;99481.55;1677743;82;21463;-54
2021/07/12 05:37:17;;;;;;;18.42;4.65;;;;;;;28.73;42.63;99481.88;1647006;83;21013;-54
2021/07/12 05:39:44;;;;;;;12.95;4.75;;;;;;;28.77;42.30;99494.08;1646859;84;21946;-53
2021/07/12 05:42:11;;;;;;;15.50;5.45;;;;;;;28.82;42.16;99500.34;1646740;84;21024;-53
2021/07/12 05:44:37;;;;;;;10.35;5.17;;;;;;;28.84;41.90;99493.72;1677211;83;21072;-53
2021/07/12 05:47:06;;;;;;;12.65;5.40;;;;;;;28.83;41.73;99497.46;1675563;83;21099;-51
2021/07/12 05:49:32;;;;;;;16.20;5.35;;;;;;;28.85;41.72;99499.97;1678365;82;21002;-51
2021/07/12 05:51:58;;;;;;;12.53;4.75;;;;;;;28.82;41.84;99499.82;1677603;83;21008;-50
2021/07/12 05:54:25;;;;;;;12.55;4.15;;;;;;;28.81;41.91;99499.47;1676968;83;21051;-51
2021/07/12 05:56:51;;;;;;;21.57;4.90;;;;;;;28.81;41.97;99498.12;1677585;82;21096;-50
2021/07/12 05:59:19;;;;;;;13.22;5.00;;;;;;;28.84;41.91;99496.95;1677747;82;21069;-51
2021/07/12 06:01:46;;;;;;;9.78;4.87;;;;;;;28.85;42.12;99504.03;1676703;82;21935;-51
2021/07/12 06:04:12;;;;;;;12.73;4.80;;;;;;;28.87;42.25;99498.80;1647694;83;21511;-50
2021/07/12 06:06:39;;;;;;;10.32;5.12;;;;;;;28.91;42.12;99504.19;1674591;82;21026;-52
2021/07/12 06:09:06;;;;;;;10.38;4.50;;;;;;;28.96;41.96;99499.62;1680306;82;21130;-50
2021/07/12 06:11:33;;;;;;;7.42;4.60;;;;;;;29.00;41.71;99510.95;1653936;82;21476;-51
2021/07/12 06:13:59;;;;;;;15.40;4.62;;;;;;;29.00;41.85;99512.30;1706544;82;21575;-50
2021/07/12 06:16:27;;;;;;;9.05;4.53;;;;;;;29.00;41.94;99506.89;1682492;82;21057;-52
2021/07/12 06:18:54;;;;;;;11.97;4.72;;;;;;;29.00;42.01;99505.53;1634311;84;21117;-51
2021/07/12 06:21:20;;;;;;;18.85;4.95;;;;;;;29.02;42.02;99510.30;1644201;84;21087;-54
2021/07/12 06:23:47;;;;;;;9.65;5.08;;;;;;;29.07;42.33;99511.97;1644387;83;21073;-54
2021/07/12 06:26:13;;;;;;;16.62;10.10;;;;;;;29.07;42.49;99521.45;1647728;84;21013;-54
2021/07/12 06:28:40;;;;;;;14.50;7.00;;;;;;;29.11;42.86;99526.84;1649377;85;21364;-53
2021/07/12 06:31:06;;;;;;;17.30;6.83;;;;;;;29.14;42.99;99529.22;1648196;84;21064;-54
2021/07/12 06:33:33;;;;;;;12.18;5.85;;;;;;;29.13;41.71;99535.64;1677070;82;21092;-54
2021/07/12 06:36:00;;;;;;;10.43;5.87;;;;;;;29.09;40.13;99541.08;1677624;82;21065;-52
2021/07/12 06:38:26;;;;;;;22.52;6.28;;;;;;;29.02;39.63;99544.16;1647085;84;21047;-53
2021/07/12 06:40:53;;;;;;;31.48;7.28;;;;;;;28.89;38.41;99537.38;1646344;83;21836;-54
2021/07/12 06:43:19;;;;;;;25.25;5.47;;;;;;;28.80;39.21;99543.83;1646721;82;21008;-54
2021/07/12 06:45:46;;;;;;;20.08;5.97;;;;;;;28.77;40.15;99550.10;1677290;83;21148;-56
2021/07/12 06:48:12;;;;;;;13.30;5.72;;;;;;;28.76;41.29;99548.39;1652990;83;21002;-55
2021/07/12 06:50:39;;;;;;;13.60;5.65;;;;;;;28.78;41.83;99546.36;1649070;84;22150;-56
2021/07/12 06:53:06;;;;;;;12.98;5.42;;;;;;;28.81;42.81;99549.56;1680432;82;21041;-54
2021/07/12 06:55:32;;;;;;;14.33;6.08;;;;;;;28.82;42.84;99546.38;1649840;83;21475;-57
2021/07/12 06:58:00;;;;;;;12.18;5.37;;;;;;;28.85;43.25;99546.00;1650635;83;21747;-55
2021/07/12 07:00:30;;;;;;;16.02;5.75;;;;;;;28.87;43.67;99544.83;1680630;82;38967;-55
2021/07/12 07:03:00;;;;;;;9.80;5.00;;;;;;;28.88;43.82;99550.59;1680201;82;21039;-56
2021/07/12 07:05:28;;;;;;;12.90;5.55;;;;;;;28.90;43.69;99549.91;1685151;83;21188;-55
2021/07/12 07:07:55;;;;;;;13.62;5.65;;;;;;;28.93;43.81;99537.04;1642783;84;21617;-55
2021/07/12 07:10:22;;;;;;;10.18;5.37;;;;;;;28.95;43.88;99526.39;1670613;83;21006;-57
2021/07/12 07:12:52;;;;;;;18.32;5.40;;;;;;;28.98;44.28;99525.18;1650493;83;21020;-57
2021/07/12 07:15:18;;;;;;;9.13;5.65;;;;;;;29.00;44.18;99517.23;1681585;83;21045;-56
2021/07/12 07:17:45;;;;;;;10.63;5.65;;;;;;;29.03;44.34;99528.22;1635990;84;21055;-56
2021/07/12 07:20:13;;;;;;;21.00;5.60;;;;;;;29.04;44.18;99522.63;1636502;84;21045;-57
2021/07/12 07:22:39;;;;;;;12.58;6.22;;;;;;;29.07;44.62;99520.09;1638377;84;21029;-55
2021/07/12 07:25:09;;;;;;;13.45;5.33;;;;;;;29.09;44.70;99519.41;1669560;84;20929;-57
2021/07/12 07:27:37;;;;;;;17.10;5.25;;;;;;;29.11;44.65;99524.14;1633708;83;21056;-54
2021/07/12 07:30:07;;;;;;;14.73;5.15;;;;;;;29.13;44.75;99522.09;1668870;83;21536;-56
2021/07/12 07:32:34;;;;;;;9.08;5.08;;;;;;;29.17;44.83;99528.04;1669196;83;21032;-56
2021/07/12 07:35:00;;;;;;;8.78;5.40;;;;;;;29.17;43.89;99530.27;1668980;84;21119;-56
2021/07/12 07:37:27;;;;;;;9.00;5.12;;;;;;;29.14;43.04;99525.67;1669831;83;22005;-55
2021/07/12 07:39:53;;;;;;;13.13;6.00;;;;;;;29.11;42.62;99536.84;1634302;84;21067;-56
2021/07/12 07:42:20;;;;;;;8.70;5.62;;;;;;;29.07;42.56;99535.00;1668441;84;21089;-55
2021/07/12 07:44:48;;;;;;;10.90;5.60;;;;;;;29.03;41.92;99540.41;1668845;84;21048;-49
2021/07/12 07:47:15;;;;;;;11.43;5.70;;;;;;;28.94;42.00;99534.16;1669374;84;21110;-44
2021/07/12 07:49:42;;;;;;;12.82;5.90;;;;;;;28.84;41.66;99539.75;1668602;83;20990;-46
2021/07/12 07:52:08;;;;;;;17.07;7.70;;;;;;;28.73;41.32;99537.38;1668933;83;21076;-47
2021/07/12 07:54:35;;;;;;;10.18;7.60;;;;;;;28.61;41.38;99536.05;1668564;83;21060;-48
2021/07/12 07:57:01;;;;;;;16.15;7.70;;;;;;;28.51;41.31;99540.23;1635595;84;21012;-47
2021/07/12 07:59:28;;;;;;;9.48;7.33;;;;;;;28.44;42.02;99536.00;1634651;85;21432;-48
2021/07/12 08:01:54;;;;;;;7.33;6.28;;;;;;;28.44;42.86;99534.64;1634192;85;20925;-48
2021/07/12 08:04:21;;;;;;;11.85;6.60;;;;;;;28.48;44.10;99533.80;1668232;83;21159;-47
2021/07/12 08:06:49;;;;;;;8.93;6.45;;;;;;;28.54;43.84;99539.38;1668760;83;21049;-47
2021/07/12 08:09:15;;;;;;;9.08;6.10;;;;;;;28.60;44.38;99542.49;1668936;83;21400;-47
2021/07/12 08:11:46;;;;;;;17.32;6.62;;;;;;;28.67;44.37;99544.85;1668890;83;21128;-48
2021/07/12 08:14:13;;;;;;;19.75;7.60;;;;;;;28.74;44.78;99544.50;1669494;83;21011;-47
2021/07/12 08:16:41;;;;;;;17.40;6.40;;;;;;;28.82;45.04;99543.66;1669423;84;21971;-48
2021/07/12 08:19:07;;;;;;;10.98;6.30;;;;;;;28.89;45.00;99545.50;1635710;85;21476;-45
2021/07/12 08:21:35;;;;;;;10.25;6.15;;;;;;;28.97;44.98;99539.77;1635258;85;21754;-46
2021/07/12 08:24:02;;;;;;;10.78;6.30;;;;;;;29.08;44.88;99532.61;1668800;83;22149;-46
2021/07/12 08:26:29;;;;;;;9.53;5.80;;;;;;;29.17;44.84;99530.27;1669516;83;21606;-45
2021/07/12 08:28:55;;;;;;;9.75;6.05;;;;;;;29.25;44.49;99519.41;1669969;84;21000;-46
2021/07/12 08:31:23;;;;;;;10.40;5.97;;;;;;;29.34;44.10;99528.87;1669118;83;21070;-45
2021/07/12 08:33:50;;;;;;;10.10;6.12;;;;;;;29.40;44.07;99526.31;1668613;83;21081;-45
2021/07/12 08:36:18;;;;;;;13.30;6.22;;;;;;;29.46;44.22;99512.55;1668555;83;21111;-46
2021/07/12 08:38:45;;;;;;;10.90;6.25;;;;;;;29.52;44.48;99521.34;1658566;84;21008;-45
2021/07/12 08:41:12;;;;;;;11.83;5.97;;;;;;;29.57;44.43;99508.11;1669759;84;21645;-46
2021/07/12 08:43:39;;;;;;;19.27;10.20;;;;;;;29.62;44.51;99504.36;1637496;84;21072;-43
2021/07/12 08:46:06;;;;;;;11.43;9.15;;;;;;;29.67;44.55;99505.16;1670871;83;21528;-46
2021/07/12 08:48:33;;;;;;;11.88;8.53;;;;;;;29.71;44.64;99504.32;1663974;83;21111;-47
2021/07/12 08:51:01;;;;;;;10.28;8.20;;;;;;;29.76;44.47;99505.98;1669229;83;21018;-46
2021/07/12 08:53:27;;;;;;;10.25;8.30;;;;;;;29.80;44.44;99507.34;1669363;83;21615;-45
2021/07/12 08:55:54;;;;;;;13.28;8.85;;;;;;;29.85;44.19;99497.31;1636095;84;21099;-48
2021/07/12 08:58:23;;;;;;;18.45;8.28;;;;;;;29.88;41.98;99498.32;1669886;84;21139;-47
2021/07/12 09:01:03;;;;;;;13.35;8.50;;;;;;;29.84;39.85;99493.73;1669340;83;22051;-46
2021/07/12 09:03:37;;;;;;;13.15;7.70;;;;;;;29.73;39.04;99492.25;1669518;83;21024;-46
2021/07/12 09:06:16;;;;;;;10.15;7.42;;;;;;;29.59;38.74;99503.34;1656499;84;21007;-47
2021/07/12 09:08:53;;;;;;;12.25;7.80;;;;;;;29.49;39.07;99502.72;1644705;85;20992;-46
2021/07/12 09:11:40;;;;;;;10.45;6.95;;;;;;;29.42;39.04;99507.13;1645152;85;21071;-48
2021/07/12 09:14:12;;;;;;;8.48;7.17;;;;;;;29.35;38.83;99510.21;1643996;85;21203;-46
2021/07/12 09:16:54;;;;;;;12.18;7.35;;;;;;;29.27;38.58;99511.94;1652164;84;21033;-47
2021/07/12 09:19:32;;;;;;;8.95;6.72;;;;;;;29.20;38.38;99516.86;1626487;85;21569;-47
2021/07/12 09:22:09;;;;;;;9.55;7.40;;;;;;;29.13;38.27;99512.61;1646291;85;21015;-48
2021/07/12 09:24:53;;;;;;;11.18;7.25;;;;;;;29.05;38.20;99519.41;1650461;84;21047;-48
2021/07/12 09:27:23;;;;;;;12.37;6.92;;;;;;;28.97;38.33;99522.98;1671460;84;21121;-48
2021/07/12 09:29:52;;;;;;;13.45;6.70;;;;;;;28.94;38.42;99520.62;1670810;84;21827;-48
2021/07/12 09:32:23;;;;;;;11.70;6.80;;;;;;;28.91;38.43;99523.67;1671357;84;21959;-48
2021/07/12 09:35:11;;;;;;;14.25;6.90;;;;;;;28.89;38.70;99529.25;1668808;84;21043;-47
2021/07/12 09:37:41;;;;;;;9.68;6.97;;;;;;;28.86;38.63;99533.66;1646073;84;21040;-47
2021/07/12 09:40:14;;;;;;;14.85;7.78;;;;;;;28.83;38.53;99535.86;1671265;84;21246;-47
2021/07/12 09:42:43;;;;;;;10.88;6.83;;;;;;;28.81;38.58;99541.96;1669004;84;21032;-47
2021/07/12 09:45:12;;;;;;;9.60;6.70;;;;;;;28.80;38.72;99538.42;1647562;85;21027;-47
2021/07/12 09:47:44;;;;;;;10.68;6.90;;;;;;;28.78;38.63;99536.39;1662809;84;21003;-47
2021/07/12 09:50:13;;;;;;;11.05;6.92;;;;;;;28.77;38.59;99538.75;1611149;87;22165;-52
2021/07/12 09:52:55;;;;;;;10.80;6.35;;;;;;;28.76;38.66;99546.52;1653645;84;21040;-50
2021/07/12 09:55:27;;;;;;;11.10;6.90;;;;;;;28.74;38.73;99541.80;1671699;84;21080;-48
2021/07/12 09:58:17;;;;;;;9.75;6.97;;;;;;;28.74;38.75;99544.50;1669781;83;21915;-49
2021/07/12 10:00:55;;;;;;;9.70;6.85;;;;;;;28.71;38.56;99539.42;1671777;83;21071;-50
2021/07/12 10:03:23;;;;;;;11.08;6.55;;;;;;;28.64;38.47;99545.19;1670613;84;21032;-56
2021/07/12 10:05:51;;;;;;;15.38;6.35;;;;;;;28.61;38.87;99549.58;1667143;84;21110;-52
2021/07/12 10:08:17;;;;;;;10.45;6.42;;;;;;;28.66;39.99;99553.98;1661172;84;21040;-54
2021/07/12 10:10:45;;;;;;;10.98;5.78;;;;;;;28.76;40.78;99552.45;1636399;85;21049;-51
2021/07/12 10:13:13;;;;;;;10.53;6.15;;;;;;;28.85;41.90;99541.45;1676810;82;21387;-52
2021/07/12 10:15:40;;;;;;;12.70;6.35;;;;;;;28.96;41.91;99543.47;1677815;83;21012;-52
2021/07/12 10:18:07;;;;;;;6.17;5.20;;;;;;;29.06;42.29;99546.84;1679852;83;21691;-52
2021/07/12 10:20:36;;;;;;;9.53;5.28;;;;;;;29.15;42.96;99544.47;1647604;83;21040;-55
2021/07/12 10:23:05;;;;;;;8.43;5.15;;;;;;;29.24;42.52;99546.67;1677872;83;21061;-52
2021/07/12 10:25:32;;;;;;;16.42;5.78;;;;;;;29.32;42.16;99546.66;1677191;83;21004;-54
2021/07/12 10:28:07;;;;;;;6.12;4.60;;;;;;;29.39;42.16;99545.45;1679065;83;21099;-49
2021/07/12 10:30:37;;;;;;;24.43;5.03;;;;;;;29.46;42.12;99545.08;1678288;83;22257;-52
2021/07/12 10:33:08;;;;;;;22.35;11.15;;;;;;;29.52;42.19;99543.52;1677513;83;20999;-53
2021/07/12 10:35:53;;;;;;;10.32;7.58;;;;;;;29.58;42.24;99545.02;1644942;83;21043;-50
2021/07/12 10:38:46;;;;;;;17.60;7.80;;;;;;;29.62;41.96;99535.53;1677113;82;21041;-51
2021/07/12 10:41:26;;;;;;;10.72;5.87;;;;;;;29.68;41.87;99538.56;1644679;84;21604;-53
2021/07/12 10:43:58;;;;;;;16.65;6.70;;;;;;;29.72;41.99;99534.45;1638935;84;22395;-50
2021/07/12 10:46:31;;;;;;;21.50;6.05;;;;;;;29.75;42.00;99523.27;1662559;83;22178;-50
2021/07/12 10:49:34;;;;;;;10.50;5.20;;;;;;;29.79;41.74;99516.48;1660630;84;22047;-48
2021/07/12 10:52:00;;;;;;;6.50;4.62;;;;;;;29.83;41.78;99509.70;1672847;83;21010;-50
2021/07/12 10:54:27;;;;;;;9.93;4.60;;;;;;;29.87;41.75;99497.45;1671208;83;21075;-48
2021/07/12 10:57:00;;;;;;;9.85;5.25;;;;;;;29.91;42.03;99495.22;1652831;84;21220;-52
2021/07/12 10:59:34;;;;;;;11.45;4.80;;;;;;;29.93;41.83;99486.42;1683405;82;21007;-49
2021/07/12 11:02:16;;;;;;;;;;;;;;;29.97;41.92;99487.22;1682128;83;20996;-51
2021/07/12 11:05:05;;;;;;;6.85;5.72;;;;;;;30.00;40.30;99478.72;1674287;83;20182;-49
2021/07/12 11:07:43;;;;;;;11.85;5.80;;;;;;;29.92;37.51;99482.84;1643072;84;21063;-55
2021/07/12 11:10:26;;;;;;;8.55;5.90;;;;;;;29.77;36.90;99472.44;1676115;82;21105;-51
2021/07/12 11:13:00;;;;;;;5.65;5.12;;;;;;;29.60;36.49;99473.84;1676033;83;25214;-54
2021/07/12 11:15:32;;;;;;;7.08;5.33;;;;;;;29.44;36.50;99464.45;1644639;83;21060;-51
2021/07/12 11:18:06;;;;;;;;;;;;;;;29.31;36.57;99458.23;1679118;83;21479;-52
2021/07/12 11:21:04;;;;;;;7.37;5.58;;;;;;;29.20;36.33;99454.06;1672994;83;20235;-52
2021/07/12 11:23:52;;;;;;;8.00;6.30;;;;;;;29.08;36.27;99454.05;1676046;83;21051;-52
2021/07/12 11:26:27;;;;;;;6.50;5.83;;;;;;;28.96;36.17;99440.55;1656032;84;20996;-52
2021/07/12 11:28:58;;;;;;;10.60;5.95;;;;;;;28.86;36.12;99448.34;1677544;83;21091;-52
2021/07/12 11:31:52;;;;;;;9.13;6.58;;;;;;;28.75;36.16;99446.03;1639926;85;21032;-52
2021/07/12 11:34:27;;;;;;;8.35;6.10;;;;;;;28.66;36.19;99449.75;1661113;84;21008;-51
2021/07/12 11:37:20;;;;;;;11.48;6.40;;;;;;;28.56;36.23;99452.63;1676154;83;21128;-52
2021/07/12 11:39:50;;;;;;;6.90;6.25;;;;;;;28.47;36.33;99462.59;1638371;85;22029;-52
2021/07/12 11:42:20;;;;;;;6.70;5.58;;;;;;;28.43;36.47;99466.67;1678643;83;21098;-54
2021/07/12 11:44:50;;;;;;;8.70;6.45;;;;;;;28.41;36.54;99459.23;1678606;82;21086;-51
2021/07/12 11:47:31;;;;;;;6.05;5.47;;;;;;;28.40;36.53;99454.83;1638878;84;21045;-46